Terminal Aerodrome Forecast
Issued by NWS Wilmington, OH

Current Version | Previous Version | Graphics & Text | Print | Product List | Glossary On
Versions: 1 2 3 4 5 6 7 8 9 10 11 12 13 14 15 16 17 18 19 20 21 22 23 24
000
FTUS41 KILN 021400 AAA
TAFILN
TAF AMD
KILN 021436Z 0215/0312 VRB04KT 5SM BR VCSH OVC025
      TEMPO 0215/0217 2SM BR OVC004
     FM021700 10006KT P6SM -SHRA SCT025 OVC040
     FM022000 07006KT P6SM VCSH SCT025 OVC040
     FM030000 05009KT P6SM VCSH SCT025 OVC050
     FM030300 02009KT P6SM SCT040 BKN060=

USA.gov is the U.S. government's official web portal to all federal, state and local government web resources and services.